Time;durP1;ratioP1;P1;durP2;ratioP2;P2;SDS_P1;SDS_P2;PMS_P1;PMS_P2;Temp;Humidity;BMP_temperature;BMP_pressure;BME280_temperature;BME280_humidity;BME280_pressure;Samples;Min_cycle;Max_cycle;Signal;HPM_P1;HPM_P2
2023/12/22 00:01:47;;;;;;;2.83;0.68;;;5.50;68.10;;;;;;4946690;28;115146;-82
2023/12/22 00:04:14;;;;;;;3.58;1.02;;;5.50;68.00;;;;;;4929497;28;116313;-83
2023/12/22 00:06:42;;;;;;;4.45;0.82;;;5.50;68.00;;;;;;4946703;28;114382;-84
2023/12/22 00:09:09;;;;;;;2.45;0.93;;;5.50;67.90;;;;;;4947199;28;114357;-83
2023/12/22 00:11:37;;;;;;;5.78;1.20;;;5.50;67.80;;;;;;4947570;28;115351;-84
2023/12/22 00:14:04;;;;;;;2.88;1.13;;;5.50;67.80;;;;;;4945955;28;114789;-84
2023/12/22 00:16:32;;;;;;;2.33;0.90;;;5.50;67.70;;;;;;4947578;28;114318;-84
2023/12/22 00:18:59;;;;;;;3.55;0.90;;;5.50;67.80;;;;;;4946851;28;114125;-84
2023/12/22 00:21:27;;;;;;;2.30;0.90;;;5.40;67.80;;;;;;4946692;28;115150;-84
2023/12/22 00:23:54;;;;;;;1.58;0.70;;;5.50;67.70;;;;;;4962032;28;117401;-84
2023/12/22 00:26:22;;;;;;;2.88;0.90;;;5.50;67.80;;;;;;4947174;28;114248;-84
2023/12/22 00:28:49;;;;;;;2.17;0.93;;;5.50;67.80;;;;;;4930283;28;114382;-84
2023/12/22 00:31:18;;;;;;;3.38;1.05;;;5.50;67.70;;;;;;4945473;28;115726;-84
2023/12/22 00:33:45;;;;;;;1.95;0.88;;;5.40;67.70;;;;;;4945419;28;114787;-84
2023/12/22 00:36:13;;;;;;;2.42;1.02;;;5.30;67.70;;;;;;4929590;28;114144;-82
2023/12/22 00:38:40;;;;;;;3.28;1.20;;;5.30;67.80;;;;;;4952977;28;114343;-82
2023/12/22 00:41:07;;;;;;;2.40;1.00;;;5.30;67.90;;;;;;4947721;28;115699;-83
2023/12/22 00:43:35;;;;;;;5.85;1.10;;;5.30;67.80;;;;;;4946948;28;114652;-84
2023/12/22 00:46:02;;;;;;;2.65;1.05;;;5.30;67.80;;;;;;4913976;28;114268;-84
2023/12/22 00:48:29;;;;;;;3.83;1.52;;;5.30;67.70;;;;;;4931608;28;114357;-84
2023/12/22 00:50:57;;;;;;;7.68;1.50;;;5.30;67.70;;;;;;4951082;28;115544;-83
2023/12/22 00:53:24;;;;;;;3.92;1.25;;;5.20;67.60;;;;;;4949018;28;114635;-83
2023/12/22 00:55:51;;;;;;;4.90;1.15;;;5.20;67.60;;;;;;4931151;28;114280;-83
2023/12/22 00:58:19;;;;;;;4.68;1.08;;;5.20;67.50;;;;;;4947325;28;114493;-83
2023/12/22 01:00:46;;;;;;;3.15;0.90;;;5.20;67.50;;;;;;4944760;28;119375;-83
2023/12/22 01:03:13;;;;;;;4.22;0.98;;;5.20;67.30;;;;;;4977658;28;114741;-83
2023/12/22 01:05:41;;;;;;;3.13;0.98;;;5.20;67.20;;;;;;4946039;28;114436;-83
2023/12/22 01:08:08;;;;;;;4.38;1.10;;;5.20;67.20;;;;;;4947502;28;114315;-83
2023/12/22 01:10:36;;;;;;;4.90;1.13;;;5.20;67.10;;;;;;4912852;28;115244;-83
2023/12/22 01:13:03;;;;;;;2.35;0.85;;;5.20;66.90;;;;;;4945094;28;115190;-84
2023/12/22 01:15:30;;;;;;;2.90;0.80;;;5.20;66.80;;;;;;4945306;28;114146;-83
2023/12/22 01:17:58;;;;;;;3.83;0.95;;;5.20;66.80;;;;;;4946760;28;114729;-84
2023/12/22 01:20:25;;;;;;;4.63;1.02;;;5.20;66.70;;;;;;4961345;28;115118;-84
2023/12/22 01:22:53;;;;;;;2.40;1.00;;;5.20;66.50;;;;;;4945132;28;114687;-84
2023/12/22 01:25:20;;;;;;;6.60;1.15;;;5.20;66.50;;;;;;4945483;28;114327;-84
2023/12/22 01:27:48;;;;;;;2.42;0.90;;;5.20;66.50;;;;;;4945950;28;114616;-84
2023/12/22 01:30:16;;;;;;;4.28;1.02;;;5.20;66.60;;;;;;4944211;28;116532;-84
2023/12/22 01:32:43;;;;;;;4.50;0.90;;;5.20;66.50;;;;;;4946464;28;115330;-84
2023/12/22 01:35:11;;;;;;;3.25;1.20;;;5.10;66.40;;;;;;4945413;28;114499;-84
2023/12/22 01:37:38;;;;;;;3.15;0.93;;;5.10;66.30;;;;;;4977969;28;114334;-85
2023/12/22 01:40:07;;;;;;;3.22;1.08;;;5.10;66.20;;;;;;4960689;28;115429;-84
2023/12/22 01:42:34;;;;;;;5.30;0.98;;;5.10;66.40;;;;;;4944606;28;114617;-84
2023/12/22 01:45:01;;;;;;;2.83;0.98;;;5.00;66.20;;;;;;4945798;28;114195;-84
2023/12/22 01:47:29;;;;;;;3.03;0.80;;;4.90;66.10;;;;;;4965334;28;114474;-84
2023/12/22 01:49:59;;;;;;;4.18;0.90;;;5.00;66.00;;;;;;4932101;28;115349;-83
2023/12/22 01:52:27;;;;;;;2.97;0.80;;;4.90;65.90;;;;;;4951739;28;115238;-82
2023/12/22 01:54:57;;;;;;;4.03;0.95;;;4.90;65.80;;;;;;4953606;28;114292;-83
2023/12/22 01:57:24;;;;;;;3.25;0.80;;;4.80;65.80;;;;;;4951203;28;114423;-83
2023/12/22 01:59:52;;;;;;;3.15;0.80;;;4.70;65.80;;;;;;4932068;28;115622;-83
2023/12/22 02:02:19;;;;;;;3.10;0.98;;;4.70;65.90;;;;;;4931560;28;117715;-84
2023/12/22 02:04:47;;;;;;;3.78;1.20;;;4.70;65.80;;;;;;4948272;28;114285;-83
2023/12/22 02:07:14;;;;;;;3.88;0.90;;;4.70;65.90;;;;;;4948155;28;115078;-82
2023/12/22 02:09:42;;;;;;;4.35;0.88;;;4.70;65.90;;;;;;4931290;28;115032;-82
2023/12/22 02:12:10;;;;;;;2.10;0.70;;;4.80;65.50;;;;;;4931546;28;114684;-82
2023/12/22 02:14:37;;;;;;;3.67;1.00;;;4.70;65.50;;;;;;4948535;28;114036;-82
2023/12/22 02:17:29;;;;;;;3.78;1.15;;;4.70;65.50;;;;;;4932428;28;114618;-82
2023/12/22 02:19:56;;;;;;;1.70;0.80;;;4.70;65.60;;;;;;4947454;28;115760;-82
2023/12/22 02:22:24;;;;;;;2.65;0.80;;;4.70;65.40;;;;;;4946260;28;115204;-83
2023/12/22 02:24:51;;;;;;;3.78;0.85;;;4.70;65.40;;;;;;4947805;28;114415;-83
2023/12/22 02:27:27;;;;;;;5.47;1.00;;;4.70;65.20;;;;;;4949497;28;114490;-84
2023/12/22 02:30:28;;;;;;;4.95;1.02;;;4.70;65.00;;;;;;4948032;28;115156;-84
2023/12/22 02:33:03;;;;;;;3.58;1.05;;;4.70;65.00;;;;;;4979684;28;115019;-83
2023/12/22 02:35:32;;;;;;;4.88;1.25;;;4.60;65.00;;;;;;4949039;28;114464;-82
2023/12/22 02:38:04;;;;;;;3.95;1.17;;;4.60;65.00;;;;;;4932297;28;114342;-83
2023/12/22 02:40:31;;;;;;;4.35;1.25;;;4.50;64.90;;;;;;4931237;28;118035;-83
2023/12/22 02:42:59;;;;;;;3.80;1.27;;;4.50;64.80;;;;;;4931024;28;114846;-84
2023/12/22 02:45:27;;;;;;;7.90;1.73;;;4.50;64.70;;;;;;4939859;28;114547;-81
2023/12/22 02:47:57;;;;;;;3.53;1.20;;;4.50;64.50;;;;;;4981347;28;114260;-82
2023/12/22 02:50:25;;;;;;;4.55;1.17;;;4.40;64.50;;;;;;4980930;28;115221;-83
2023/12/22 02:52:52;;;;;;;4.47;1.23;;;4.50;64.50;;;;;;4966659;28;114573;-83
2023/12/22 02:55:19;;;;;;;6.85;1.27;;;4.50;64.40;;;;;;4967876;28;114540;-84
2023/12/22 02:57:47;;;;;;;4.45;1.10;;;4.40;64.20;;;;;;4968354;28;114279;-84
2023/12/22 03:00:15;;;;;;;4.95;1.33;;;4.50;64.30;;;;;;4966840;28;115048;-84
2023/12/22 03:02:42;;;;;;;4.40;1.25;;;4.40;64.30;;;;;;4982916;28;114623;-83
2023/12/22 03:05:09;;;;;;;5.45;1.23;;;4.40;64.30;;;;;;5000388;28;114524;-84
2023/12/22 03:07:37;;;;;;;9.80;1.65;;;4.50;64.30;;;;;;4968141;28;114430;-84
2023/12/22 03:10:05;;;;;;;4.22;1.35;;;4.50;64.00;;;;;;4999311;28;114982;-83
2023/12/22 03:12:32;;;;;;;6.53;1.42;;;4.50;63.90;;;;;;4966861;28;114543;-83
2023/12/22 03:14:59;;;;;;;6.68;1.33;;;4.40;63.90;;;;;;4983444;28;114370;-83
2023/12/22 03:17:27;;;;;;;12.15;1.92;;;4.40;63.90;;;;;;4967783;28;114540;-83
2023/12/22 03:19:54;;;;;;;5.82;1.42;;;4.40;63.70;;;;;;4966777;28;114843;-83
2023/12/22 03:22:22;;;;;;;8.18;1.45;;;4.40;63.70;;;;;;4982426;28;115015;-83
2023/12/22 03:24:49;;;;;;;5.40;1.35;;;4.40;63.70;;;;;;4966944;28;114473;-84
2023/12/22 03:27:18;;;;;;;5.88;1.30;;;4.30;63.80;;;;;;4967938;28;114387;-84
2023/12/22 03:29:45;;;;;;;6.57;2.15;;;4.40;63.80;;;;;;4982130;28;115547;-84
2023/12/22 03:32:12;;;;;;;6.30;1.35;;;4.30;63.70;;;;;;4966941;28;114541;-83
2023/12/22 03:34:40;;;;;;;6.05;1.77;;;4.30;63.60;;;;;;4969689;28;114558;-83
2023/12/22 03:37:08;;;;;;;5.50;1.20;;;4.30;63.60;;;;;;4971514;28;114514;-83
2023/12/22 03:39:35;;;;;;;6.82;1.40;;;4.20;63.50;;;;;;4967375;28;115089;-83
2023/12/22 03:42:03;;;;;;;8.95;1.27;;;4.20;63.60;;;;;;4981938;28;117898;-83
2023/12/22 03:44:30;;;;;;;6.93;1.60;;;4.20;63.50;;;;;;4967451;28;114472;-83
2023/12/22 03:46:57;;;;;;;11.05;1.98;;;4.20;63.70;;;;;;4999958;28;114601;-84
2023/12/22 03:49:24;;;;;;;8.30;2.50;;;4.10;63.70;;;;;;4981631;28;116407;-86
2023/12/22 03:51:52;;;;;;;6.70;1.45;;;4.10;63.50;;;;;;4966909;28;114824;-84
2023/12/22 03:54:19;;;;;;;5.60;1.30;;;4.10;63.40;;;;;;4967592;28;114177;-82
2023/12/22 03:56:46;;;;;;;4.65;1.42;;;4.10;63.20;;;;;;4982957;28;114422;-83
2023/12/22 03:59:14;;;;;;;4.13;1.13;;;4.10;63.30;;;;;;4965445;28;115023;-84
2023/12/22 04:01:42;;;;;;;9.18;1.48;;;4.10;63.20;;;;;;4998762;28;114815;-83
2023/12/22 04:04:09;;;;;;;7.95;1.85;;;4.10;63.10;;;;;;4998946;28;114385;-83
2023/12/22 04:06:42;;;;;;;4.95;1.50;;;4.10;62.90;;;;;;4982762;28;114665;-83
2023/12/22 04:09:10;;;;;;;6.65;1.58;;;4.10;63.00;;;;;;4995125;28;115193;-83
2023/12/22 04:11:37;;;;;;;5.82;1.90;;;4.10;63.00;;;;;;4998059;28;114846;-83
2023/12/22 04:14:06;;;;;;;6.05;1.38;;;4.20;62.80;;;;;;4949942;28;114525;-82
2023/12/22 04:16:37;;;;;;;5.22;1.25;;;4.20;62.60;;;;;;4967231;28;114334;-83
2023/12/22 04:19:05;;;;;;;10.73;2.00;;;4.20;62.30;;;;;;4997645;28;115112;-83
2023/12/22 04:21:38;;;;;;;8.20;1.80;;;4.20;62.10;;;;;;4996491;28;114796;-84
2023/12/22 04:24:05;;;;;;;4.88;1.40;;;4.10;62.00;;;;;;4967346;28;114144;-84
2023/12/22 04:26:33;;;;;;;6.28;1.40;;;4.20;61.90;;;;;;4967449;28;114284;-84
2023/12/22 04:29:00;;;;;;;6.43;1.50;;;4.10;62.00;;;;;;4981226;28;119171;-84
2023/12/22 04:31:28;;;;;;;4.45;1.30;;;4.10;61.90;;;;;;4964780;28;114625;-84
2023/12/22 04:33:55;;;;;;;7.57;2.15;;;4.10;61.90;;;;;;4966420;28;114761;-84
2023/12/22 04:36:23;;;;;;;6.40;1.38;;;4.10;61.90;;;;;;4998622;28;114336;-83
2023/12/22 04:38:50;;;;;;;5.90;1.70;;;4.10;61.80;;;;;;4965861;28;115042;-83
2023/12/22 04:41:20;;;;;;;8.23;2.85;;;4.10;61.80;;;;;;4966011;28;114808;-83
2023/12/22 04:43:48;;;;;;;6.63;2.67;;;4.10;61.80;;;;;;4998652;28;114412;-83
2023/12/22 04:46:15;;;;;;;7.53;1.67;;;4.10;61.80;;;;;;4976448;28;114330;-84
2023/12/22 04:48:42;;;;;;;6.88;1.58;;;4.10;61.70;;;;;;4983148;28;114389;-83
2023/12/22 04:51:10;;;;;;;9.02;1.30;;;4.10;61.60;;;;;;4981152;28;116039;-83
2023/12/22 04:53:37;;;;;;;7.45;1.38;;;4.10;61.60;;;;;;4998450;28;114532;-83
2023/12/22 04:56:05;;;;;;;5.05;1.38;;;4.10;61.30;;;;;;4965499;28;114270;-83
2023/12/22 04:58:32;;;;;;;11.57;2.45;;;4.10;61.40;;;;;;4965293;28;115142;-82
2023/12/22 05:01:00;;;;;;;5.40;1.27;;;4.10;61.20;;;;;;4980809;28;115179;-83
2023/12/22 05:03:27;;;;;;;5.50;1.50;;;4.10;61.10;;;;;;4966737;28;114138;-83
2023/12/22 05:05:55;;;;;;;10.35;1.67;;;4.10;61.10;;;;;;4966936;28;114614;-83
2023/12/22 05:08:22;;;;;;;8.05;1.80;;;4.10;61.30;;;;;;4965504;28;115334;-83
2023/12/22 05:10:49;;;;;;;10.55;1.60;;;4.10;61.20;;;;;;4965492;28;114574;-83
2023/12/22 05:13:17;;;;;;;6.65;1.65;;;4.10;61.20;;;;;;4997890;28;114703;-83
2023/12/22 05:15:45;;;;;;;8.95;1.63;;;4.00;61.00;;;;;;4966656;28;114593;-83
2023/12/22 05:18:13;;;;;;;4.25;1.17;;;4.00;60.90;;;;;;4966208;28;115103;-83
2023/12/22 05:20:41;;;;;;;9.43;2.55;;;3.90;60.70;;;;;;4999304;27;115127;-83
2023/12/22 05:23:08;;;;;;;8.30;1.52;;;3.80;60.80;;;;;;5004238;28;114386;-82
2023/12/22 05:25:36;;;;;;;7.68;1.83;;;3.90;60.90;;;;;;4973190;28;114343;-83
2023/12/22 05:28:03;;;;;;;5.47;1.15;;;3.80;61.00;;;;;;4972161;28;115604;-83
2023/12/22 05:30:30;;;;;;;9.65;1.35;;;3.80;61.00;;;;;;5003453;28;115417;-84
2023/12/22 05:32:58;;;;;;;4.45;1.67;;;3.70;61.10;;;;;;4988274;28;114375;-85
2023/12/22 05:35:25;;;;;;;6.30;1.25;;;3.70;61.20;;;;;;4987934;28;114486;-84
2023/12/22 05:37:53;;;;;;;5.32;1.45;;;3.70;61.40;;;;;;4970756;28;115363;-83
2023/12/22 05:40:20;;;;;;;7.38;1.45;;;3.70;61.50;;;;;;4987375;28;114586;-83
2023/12/22 05:42:47;;;;;;;6.82;1.52;;;3.70;61.60;;;;;;4987699;28;114488;-84
2023/12/22 05:45:15;;;;;;;8.15;2.20;;;3.60;61.70;;;;;;4971222;28;114429;-84
2023/12/22 05:47:42;;;;;;;9.88;2.10;;;3.60;61.90;;;;;;4986226;28;116180;-83
2023/12/22 05:50:10;;;;;;;6.50;1.50;;;3.50;62.00;;;;;;5003031;28;115007;-83
2023/12/22 05:52:38;;;;;;;8.02;1.85;;;3.50;62.10;;;;;;4987869;28;114288;-83
2023/12/22 05:55:08;;;;;;;5.85;1.50;;;3.50;62.20;;;;;;4971186;28;114323;-83
2023/12/22 05:57:35;;;;;;;6.78;1.70;;;3.50;62.50;;;;;;5002637;28;115696;-83
2023/12/22 06:00:07;;;;;;;4.50;1.25;;;3.50;62.60;;;;;;4971592;28;114850;-82
2023/12/22 06:02:34;;;;;;;6.45;1.25;;;3.50;62.70;;;;;;4972482;28;114293;-83
2023/12/22 06:05:01;;;;;;;2.92;1.20;;;3.50;62.70;;;;;;5004626;28;114212;-84
2023/12/22 06:07:29;;;;;;;5.03;2.03;;;3.40;62.80;;;;;;4986147;28;118560;-84
2023/12/22 06:09:56;;;;;;;7.00;2.47;;;3.30;62.90;;;;;;4970075;28;115095;-84
2023/12/22 06:12:24;;;;;;;5.50;1.38;;;3.30;63.10;;;;;;5003407;28;114537;-83
2023/12/22 06:14:51;;;;;;;4.05;0.93;;;3.20;63.30;;;;;;4987512;28;114481;-84
2023/12/22 06:17:19;;;;;;;3.00;0.82;;;3.20;63.50;;;;;;4971325;28;115096;-84
2023/12/22 06:19:46;;;;;;;0.90;0.50;;;3.20;63.60;;;;;;4971438;28;114602;-83
2023/12/22 06:22:13;;;;;;;1.48;0.68;;;3.20;63.70;;;;;;4971054;28;114240;-84
2023/12/22 06:24:41;;;;;;;2.47;0.60;;;3.10;63.70;;;;;;4972516;28;114257;-84
2023/12/22 06:27:08;;;;;;;3.80;0.60;;;3.10;63.90;;;;;;4966167;28;115481;-83
2023/12/22 06:29:38;;;;;;;1.75;0.95;;;3.00;64.00;;;;;;4926727;28;115872;-84
2023/12/22 06:32:06;;;;;;;1.50;0.60;;;3.10;64.20;;;;;;4956397;28;114670;-84
2023/12/22 06:34:33;;;;;;;0.98;0.50;;;3.00;64.30;;;;;;4986237;28;114587;-83
2023/12/22 06:37:06;;;;;;;2.25;0.60;;;3.00;64.50;;;;;;4954762;28;115279;-84
2023/12/22 06:39:33;;;;;;;2.20;0.63;;;3.00;64.80;;;;;;4960469;28;116850;-84
2023/12/22 06:42:00;;;;;;;3.50;0.95;;;3.00;64.80;;;;;;4975953;28;114399;-84
2023/12/22 06:44:29;;;;;;;2.17;0.80;;;2.90;65.00;;;;;;4961415;28;114475;-83
2023/12/22 06:46:56;;;;;;;6.13;1.40;;;3.00;65.10;;;;;;4930769;28;115044;-83
2023/12/22 06:49:24;;;;;;;1.98;0.93;;;2.90;65.20;;;;;;4945132;28;114844;-83
2023/12/22 06:51:51;;;;;;;3.78;1.33;;;3.00;65.30;;;;;;4947473;28;115301;-82
2023/12/22 06:54:19;;;;;;;3.38;1.50;;;2.90;65.30;;;;;;4963030;28;114274;-82
2023/12/22 06:56:46;;;;;;;3.80;1.20;;;2.80;65.40;;;;;;4948629;28;116821;-83
2023/12/22 06:59:14;;;;;;;4.35;1.15;;;2.80;65.50;;;;;;4929609;28;115673;-83
2023/12/22 07:01:43;;;;;;;3.58;1.20;;;2.80;65.60;;;;;;4962980;28;114894;-84
2023/12/22 07:05:25;;;;;;;3.80;1.33;;;2.80;65.80;;;;;;4948860;28;114892;-83
2023/12/22 07:07:54;;;;;;;7.05;1.75;;;2.90;65.90;;;;;;4923314;28;115773;-83
2023/12/22 07:10:21;;;;;;;6.80;1.52;;;2.90;65.90;;;;;;4945721;28;114693;-83
2023/12/22 07:12:49;;;;;;;8.90;1.48;;;2.90;65.80;;;;;;4946058;28;114445;-82
2023/12/22 07:15:17;;;;;;;6.15;1.50;;;2.90;65.70;;;;;;4932657;28;115090;-82
2023/12/22 07:17:45;;;;;;;7.10;1.98;;;3.00;65.70;;;;;;4965121;28;115175;-83
2023/12/22 07:20:12;;;;;;;6.70;1.55;;;3.00;65.60;;;;;;4966438;28;114594;-83
2023/12/22 07:22:40;;;;;;;5.10;1.30;;;3.00;65.50;;;;;;4967387;28;114443;-83
2023/12/22 07:25:08;;;;;;;4.55;1.48;;;3.10;65.60;;;;;;4966903;28;114437;-84
2023/12/22 07:27:35;;;;;;;5.85;1.58;;;3.10;65.60;;;;;;4963912;28;115187;-85
2023/12/22 07:30:03;;;;;;;4.65;1.27;;;3.10;65.40;;;;;;4965856;28;114574;-83
2023/12/22 07:32:33;;;;;;;6.90;1.85;;;3.20;65.30;;;;;;4966959;28;114378;-83
2023/12/22 07:35:00;;;;;;;5.30;1.50;;;3.20;65.00;;;;;;4969268;28;114527;-82
2023/12/22 07:37:28;;;;;;;5.50;1.50;;;3.20;64.90;;;;;;4969149;28;114725;-83
2023/12/22 07:39:55;;;;;;;4.05;1.10;;;3.20;64.90;;;;;;4999909;28;114698;-82
2023/12/22 07:42:25;;;;;;;5.82;0.98;;;3.20;64.70;;;;;;4949572;28;114493;-83
2023/12/22 07:44:54;;;;;;;5.30;1.30;;;3.20;64.30;;;;;;4952121;28;114258;-83
2023/12/22 07:47:21;;;;;;;3.45;1.05;;;3.20;63.80;;;;;;4929725;28;115052;-83
2023/12/22 07:49:49;;;;;;;6.13;1.13;;;3.30;63.60;;;;;;4929033;28;115234;-83
2023/12/22 07:52:17;;;;;;;4.00;0.75;;;3.30;63.30;;;;;;4946068;28;114902;-82
2023/12/22 07:54:47;;;;;;;2.40;0.80;;;3.20;62.50;;;;;;4947452;28;114542;-84
2023/12/22 07:57:15;;;;;;;1.65;0.80;;;3.20;62.30;;;;;;4943451;28;115751;-82
2023/12/22 07:59:42;;;;;;;3.63;0.93;;;3.20;61.50;;;;;;4945939;28;114750;-84
2023/12/22 08:02:10;;;;;;;2.17;0.82;;;3.20;60.80;;;;;;4944622;28;116610;-84
2023/12/22 08:04:37;;;;;;;2.50;0.77;;;3.10;60.90;;;;;;4929466;28;115089;-83
2023/12/22 08:07:07;;;;;;;1.63;0.50;;;3.10;61.00;;;;;;4945057;28;114672;-84
2023/12/22 08:09:35;;;;;;;2.28;0.88;;;2.90;61.00;;;;;;4929252;28;114900;-84
2023/12/22 08:12:02;;;;;;;1.83;0.60;;;2.80;61.30;;;;;;4928966;28;114420;-83
2023/12/22 08:14:31;;;;;;;3.22;0.95;;;2.70;61.60;;;;;;4958172;28;114488;-83
2023/12/22 08:16:59;;;;;;;1.02;0.60;;;2.60;62.20;;;;;;4963171;28;115350;-84
2023/12/22 08:19:27;;;;;;;2.03;0.80;;;2.50;62.80;;;;;;4947907;28;114998;-84
2023/12/22 08:21:58;;;;;;;1.70;0.70;;;2.30;63.20;;;;;;4966251;28;114392;-82
2023/12/22 08:24:29;;;;;;;5.15;1.20;;;2.10;63.90;;;;;;4960463;28;115020;-83
2023/12/22 08:26:57;;;;;;;1.58;0.65;;;2.10;64.60;;;;;;4948314;28;115235;-83
2023/12/22 08:29:24;;;;;;;1.83;0.70;;;1.90;65.10;;;;;;4953011;28;115230;-84
2023/12/22 08:31:53;;;;;;;1.73;0.85;;;1.90;65.60;;;;;;4945791;28;114374;-83
2023/12/22 08:34:20;;;;;;;3.67;1.15;;;1.90;66.10;;;;;;4962014;28;114899;-84
2023/12/22 08:36:48;;;;;;;2.92;0.77;;;1.90;66.50;;;;;;4969454;28;114591;-84
2023/12/22 08:39:15;;;;;;;1.35;0.80;;;1.80;66.60;;;;;;4946397;28;114690;-84
2023/12/22 08:41:43;;;;;;;2.40;1.02;;;1.90;66.90;;;;;;4947656;28;114658;-82
2023/12/22 08:44:11;;;;;;;3.00;1.30;;;1.90;67.10;;;;;;4970183;28;114421;-83
2023/12/22 08:46:38;;;;;;;4.57;1.65;;;2.10;67.20;;;;;;4958585;28;115419;-84
2023/12/22 08:49:07;;;;;;;5.07;1.30;;;2.20;67.40;;;;;;4965620;28;114686;-83
2023/12/22 08:51:36;;;;;;;4.47;1.55;;;2.40;67.50;;;;;;4965631;28;114777;-83
2023/12/22 08:54:04;;;;;;;3.47;1.15;;;2.60;67.60;;;;;;4965085;28;114630;-83
2023/12/22 08:56:31;;;;;;;3.20;1.15;;;2.70;67.30;;;;;;4929088;28;115277;-84
2023/12/22 08:58:59;;;;;;;4.85;2.10;;;2.70;67.10;;;;;;4950264;28;114961;-84
2023/12/22 09:01:27;;;;;;;3.38;1.23;;;2.90;67.00;;;;;;4956056;28;114669;-82
2023/12/22 09:03:54;;;;;;;3.92;1.60;;;3.00;66.80;;;;;;4927359;28;114592;-83
2023/12/22 09:06:22;;;;;;;7.10;2.28;;;3.00;66.80;;;;;;4948999;28;115010;-83
2023/12/22 09:08:49;;;;;;;6.53;1.88;;;3.10;66.80;;;;;;4944613;28;114640;-82
2023/12/22 09:11:19;;;;;;;8.07;1.92;;;3.10;66.60;;;;;;4945653;28;114263;-82
2023/12/22 09:13:46;;;;;;;5.30;2.10;;;3.20;66.50;;;;;;4960387;28;114773;-82
2023/12/22 09:16:17;;;;;;;11.65;2.28;;;3.20;66.40;;;;;;4963285;28;115722;-83
2023/12/22 09:21:17;;;;;;;9.65;2.67;;;3.30;66.00;;;;;;4937441;28;114534;-82
2023/12/22 09:23:47;;;;;;;11.27;2.63;;;3.40;66.00;;;;;;4946108;28;114605;-83
2023/12/22 09:26:15;;;;;;;7.05;2.55;;;3.40;65.70;;;;;;4911247;28;118319;-83
2023/12/22 09:28:44;;;;;;;6.13;2.08;;;3.40;65.60;;;;;;4944493;28;114639;-83
2023/12/22 09:31:15;;;;;;;10.05;2.20;;;3.50;65.00;;;;;;4953632;28;114612;-82
2023/12/22 09:33:42;;;;;;;11.75;2.15;;;3.50;64.80;;;;;;4959560;28;114775;-83
2023/12/22 09:36:10;;;;;;;6.75;1.77;;;3.60;64.30;;;;;;4975415;28;115728;-82
2023/12/22 09:38:37;;;;;;;12.35;3.42;;;3.60;64.10;;;;;;4943883;28;115256;-83
2023/12/22 09:41:06;;;;;;;8.50;2.45;;;3.60;63.80;;;;;;4943504;28;115259;-83
2023/12/22 09:43:36;;;;;;;9.05;2.25;;;3.70;63.80;;;;;;4942137;28;114728;-83
2023/12/22 09:46:05;;;;;;;6.78;1.92;;;3.70;63.40;;;;;;4923382;28;115622;-84
2023/12/22 09:48:32;;;;;;;7.88;2.42;;;3.80;63.10;;;;;;4930855;28;114768;-85
2023/12/22 09:51:00;;;;;;;7.50;1.73;;;3.80;63.00;;;;;;4904795;28;114508;-84
2023/12/22 09:53:27;;;;;;;7.57;2.20;;;3.80;62.90;;;;;;4906085;28;116125;-83
2023/12/22 09:55:55;;;;;;;4.53;2.08;;;3.80;62.80;;;;;;4946738;28;116598;-84
2023/12/22 09:58:22;;;;;;;7.18;2.00;;;3.70;62.70;;;;;;4941308;28;114755;-85
2023/12/22 10:00:50;;;;;;;5.47;1.30;;;3.80;62.80;;;;;;4923139;28;117867;-84
2023/12/22 10:03:17;;;;;;;6.65;1.50;;;3.70;62.60;;;;;;4915394;28;114534;-85
2023/12/22 10:05:44;;;;;;;5.30;1.83;;;3.70;62.70;;;;;;4914771;28;117275;-84
2023/12/22 10:08:12;;;;;;;6.75;1.70;;;3.70;62.80;;;;;;4894702;28;117897;-84
2023/12/22 10:10:41;;;;;;;7.07;2.20;;;3.80;62.80;;;;;;4946221;28;114717;-84
2023/12/22 10:13:09;;;;;;;6.32;1.58;;;3.90;62.80;;;;;;4945836;28;114821;-83
2023/12/22 10:15:43;;;;;;;5.30;1.70;;;4.00;62.60;;;;;;4945611;28;115205;-84
2023/12/22 10:18:10;;;;;;;9.88;2.35;;;4.10;62.60;;;;;;4929924;28;114793;-84
2023/12/22 10:20:38;;;;;;;6.50;1.70;;;4.10;62.40;;;;;;4946218;28;114819;-83
2023/12/22 10:23:05;;;;;;;8.15;1.40;;;4.10;62.30;;;;;;4945464;28;114814;-85
2023/12/22 10:25:33;;;;;;;5.22;1.45;;;4.10;61.90;;;;;;4944014;28;115204;-84
2023/12/22 10:28:02;;;;;;;4.55;1.50;;;4.10;61.90;;;;;;4976656;28;114840;-84
2023/12/22 10:30:29;;;;;;;4.53;1.13;;;4.10;61.70;;;;;;4956070;28;114544;-84
2023/12/22 10:33:04;;;;;;;4.85;1.55;;;4.00;61.80;;;;;;4980132;28;114729;-82
2023/12/22 10:35:32;;;;;;;5.25;1.27;;;4.00;61.90;;;;;;4946045;28;114972;-86
2023/12/22 10:38:03;;;;;;;6.55;1.40;;;3.90;62.10;;;;;;4951671;28;113618;-85
2023/12/22 10:40:31;;;;;;;8.13;1.42;;;3.90;62.30;;;;;;4947998;28;114783;-85
2023/12/22 10:43:00;;;;;;;5.07;1.30;;;3.90;62.40;;;;;;4950535;28;114945;-85
2023/12/22 10:45:30;;;;;;;5.05;1.70;;;3.90;62.30;;;;;;4968114;28;115086;-85
2023/12/22 10:47:59;;;;;;;4.55;1.50;;;3.90;62.40;;;;;;4955131;28;117782;-84
2023/12/22 10:50:27;;;;;;;3.97;2.03;;;3.90;62.30;;;;;;4926129;28;114664;-85
2023/12/22 10:52:54;;;;;;;3.90;1.50;;;3.90;61.90;;;;;;4952358;28;114718;-85
2023/12/22 10:55:22;;;;;;;3.40;1.40;;;3.90;61.90;;;;;;4946453;28;115079;-84
2023/12/22 10:57:50;;;;;;;4.38;1.60;;;4.00;61.80;;;;;;4924005;28;118466;-83
2023/12/22 11:00:19;;;;;;;5.75;1.55;;;4.00;61.60;;;;;;4954700;28;115017;-85
2023/12/22 11:02:50;;;;;;;4.28;1.40;;;4.00;61.30;;;;;;4941843;28;114673;-84
2023/12/22 11:05:19;;;;;;;6.72;1.52;;;3.90;61.10;;;;;;4937857;28;116053;-84
2023/12/22 11:07:49;;;;;;;5.25;1.52;;;3.90;61.30;;;;;;4934590;28;114730;-84
2023/12/22 11:10:20;;;;;;;3.70;1.25;;;3.90;61.10;;;;;;4950619;28;114758;-84
2023/12/22 11:12:48;;;;;;;6.70;1.65;;;4.00;61.10;;;;;;4944319;28;114485;-84
2023/12/22 11:15:16;;;;;;;5.07;1.60;;;3.90;61.00;;;;;;4926494;28;118396;-84
2023/12/22 11:17:43;;;;;;;4.78;1.52;;;3.90;60.50;;;;;;4943252;28;115323;-84
2023/12/22 11:20:13;;;;;;;7.30;1.55;;;3.90;60.70;;;;;;4974647;28;115402;-84
2023/12/22 11:22:42;;;;;;;3.50;1.23;;;3.90;60.50;;;;;;4942455;28;114709;-83
2023/12/22 11:25:09;;;;;;;5.15;1.20;;;4.00;60.40;;;;;;4925444;28;115342;-84
2023/12/22 11:27:41;;;;;;;4.38;1.20;;;4.00;60.30;;;;;;4926735;28;114794;-83
2023/12/22 11:30:11;;;;;;;6.25;1.20;;;4.10;60.10;;;;;;4935696;28;114727;-84
2023/12/22 11:32:39;;;;;;;3.80;1.77;;;4.10;59.70;;;;;;4944094;28;114667;-84
2023/12/22 11:35:07;;;;;;;6.43;1.35;;;4.10;59.70;;;;;;4940937;28;116177;-83
2023/12/22 11:37:36;;;;;;;3.85;1.50;;;4.10;59.60;;;;;;4941801;28;116169;-84
2023/12/22 11:40:05;;;;;;;6.53;1.70;;;4.10;59.70;;;;;;4947000;28;114856;-84
2023/12/22 11:42:38;;;;;;;6.25;1.50;;;4.10;59.70;;;;;;4939795;28;114401;-84
2023/12/22 11:45:09;;;;;;;6.40;1.55;;;4.20;59.60;;;;;;4939462;28;115076;-84
2023/12/22 11:47:37;;;;;;;4.40;1.27;;;4.20;59.60;;;;;;4934814;28;115609;-83
2023/12/22 11:50:14;;;;;;;6.95;1.60;;;4.20;59.40;;;;;;4935580;28;114413;-83
2023/12/22 11:52:41;;;;;;;4.68;1.35;;;4.20;59.40;;;;;;4940052;28;114755;-83
2023/12/22 11:55:09;;;;;;;6.55;1.63;;;4.20;59.40;;;;;;4911971;28;116072;-83
2023/12/22 11:57:53;;;;;;;5.70;1.58;;;4.20;59.30;;;;;;4965296;28;114868;-84
2023/12/22 12:00:20;;;;;;;4.43;1.50;;;4.20;59.60;;;;;;4937010;28;114724;-84
2023/12/22 12:02:54;;;;;;;5.93;1.33;;;4.20;59.20;;;;;;4951675;28;114738;-82
2023/12/22 12:05:22;;;;;;;5.50;1.42;;;4.20;59.00;;;;;;4911036;28;115694;-84
2023/12/22 12:07:51;;;;;;;4.90;1.33;;;4.20;59.30;;;;;;4924636;28;114980;-83
2023/12/22 12:10:32;;;;;;;5.13;1.60;;;4.20;59.30;;;;;;4934532;28;114534;-83
2023/12/22 12:13:07;;;;;;;3.92;1.30;;;4.30;58.80;;;;;;4927980;28;115161;-84
2023/12/22 12:15:35;;;;;;;4.43;1.20;;;4.30;58.60;;;;;;4935108;28;115107;-82
2023/12/22 12:18:04;;;;;;;3.33;1.42;;;4.30;58.60;;;;;;4948447;28;116772;-84
2023/12/22 12:20:32;;;;;;;6.63;1.60;;;4.30;58.60;;;;;;4949312;28;114640;-83
2023/12/22 12:23:01;;;;;;;5.85;2.25;;;4.30;58.50;;;;;;4915455;28;114476;-82
2023/12/22 12:25:29;;;;;;;3.38;1.10;;;4.40;58.20;;;;;;4948530;28;114911;-84
2023/12/22 12:28:07;;;;;;;3.25;0.75;;;4.40;57.70;;;;;;4964228;28;115237;-82
2023/12/22 12:30:36;;;;;;;4.38;1.25;;;4.30;57.30;;;;;;4925916;28;114862;-84
2023/12/22 12:33:10;;;;;;;2.13;0.77;;;4.30;57.10;;;;;;4948192;28;114721;-85
2023/12/22 12:35:43;;;;;;;3.75;0.88;;;4.30;57.20;;;;;;4947580;28;118858;-83
2023/12/22 12:38:17;;;;;;;4.97;1.08;;;4.30;57.30;;;;;;4918951;28;114589;-84
2023/12/22 12:40:48;;;;;;;3.03;1.00;;;4.30;57.40;;;;;;4928276;28;114799;-84
2023/12/22 12:43:16;;;;;;;5.07;1.20;;;4.30;57.60;;;;;;4939778;28;115026;-84
2023/12/22 12:45:43;;;;;;;3.88;1.17;;;4.20;57.80;;;;;;4955148;28;116181;-83
2023/12/22 12:48:16;;;;;;;5.60;1.88;;;4.20;57.90;;;;;;4941885;28;117195;-84
2023/12/22 12:50:43;;;;;;;4.50;0.88;;;4.20;58.10;;;;;;4915635;28;114631;-84
2023/12/22 12:53:11;;;;;;;3.03;0.80;;;4.10;58.20;;;;;;4960149;28;114664;-84
2023/12/22 12:55:43;;;;;;;4.07;1.13;;;4.10;58.40;;;;;;4911429;28;118806;-83